sensor_id;sensor_type;location;lat;lon;timestamp;temperature;humidity
44229;DHT22;29904;51.058;5.378;2023-05-07T00:00:58;15.10;99.90
44229;DHT22;29904;51.058;5.378;2023-05-07T00:03:25;15.10;99.90
44229;DHT22;29904;51.058;5.378;2023-05-07T00:05:51;15.10;99.90
44229;DHT22;29904;51.058;5.378;2023-05-07T00:08:18;15.10;99.90
44229;DHT22;29904;51.058;5.378;2023-05-07T00:10:46;15.20;99.90
44229;DHT22;29904;51.058;5.378;2023-05-07T00:13:12;15.10;99.90
44229;DHT22;29904;51.058;5.378;2023-05-07T00:15:38;15.10;99.90
44229;DHT22;29904;51.058;5.378;2023-05-07T00:18:04;15.10;99.90
44229;DHT22;29904;51.058;5.378;2023-05-07T00:20:30;15.10;99.90
44229;DHT22;29904;51.058;5.378;2023-05-07T00:22:57;15.10;99.90
44229;DHT22;29904;51.058;5.378;2023-05-07T00:25:23;15.10;99.90
44229;DHT22;29904;51.058;5.378;2023-05-07T00:27:49;15.10;99.90
44229;DHT22;29904;51.058;5.378;2023-05-07T00:30:15;15.10;99.90
44229;DHT22;29904;51.058;5.378;2023-05-07T00:32:41;15.10;99.90
44229;DHT22;29904;51.058;5.378;2023-05-07T00:35:07;15.10;99.90
44229;DHT22;29904;51.058;5.378;2023-05-07T00:37:34;15.10;99.90
44229;DHT22;29904;51.058;5.378;2023-05-07T00:40:00;15.10;99.90
44229;DHT22;29904;51.058;5.378;2023-05-07T00:42:28;15.10;99.90
44229;DHT22;29904;51.058;5.378;2023-05-07T00:44:54;15.10;99.90
44229;DHT22;29904;51.058;5.378;2023-05-07T00:47:20;15.10;99.90
44229;DHT22;29904;51.058;5.378;2023-05-07T00:49:46;15.10;99.90
44229;DHT22;29904;51.058;5.378;2023-05-07T00:52:15;15.10;99.90
44229;DHT22;29904;51.058;5.378;2023-05-07T00:54:42;15.10;99.90
44229;DHT22;29904;51.058;5.378;2023-05-07T00:57:09;15.10;99.90
44229;DHT22;29904;51.058;5.378;2023-05-07T00:59:37;15.00;99.90
44229;DHT22;29904;51.058;5.378;2023-05-07T01:02:03;15.00;99.90
44229;DHT22;29904;51.058;5.378;2023-05-07T01:04:29;15.00;99.90
44229;DHT22;29904;51.058;5.378;2023-05-07T01:06:56;15.00;99.90
44229;DHT22;29904;51.058;5.378;2023-05-07T01:09:24;15.00;99.90
44229;DHT22;29904;51.058;5.378;2023-05-07T01:11:50;15.00;99.90
44229;DHT22;29904;51.058;5.378;2023-05-07T01:14:17;15.00;99.90
44229;DHT22;29904;51.058;5.378;2023-05-07T01:16:43;15.00;99.90
44229;DHT22;29904;51.058;5.378;2023-05-07T01:19:11;15.00;99.90
44229;DHT22;29904;51.058;5.378;2023-05-07T01:21:44;15.00;99.90
44229;DHT22;29904;51.058;5.378;2023-05-07T01:24:13;15.00;99.90
44229;DHT22;29904;51.058;5.378;2023-05-07T01:26:39;15.00;99.90
44229;DHT22;29904;51.058;5.378;2023-05-07T01:29:05;15.00;99.90
44229;DHT22;29904;51.058;5.378;2023-05-07T01:31:33;15.00;99.90
44229;DHT22;29904;51.058;5.378;2023-05-07T01:34:00;15.00;99.90
44229;DHT22;29904;51.058;5.378;2023-05-07T01:36:28;15.00;99.90
44229;DHT22;29904;51.058;5.378;2023-05-07T01:38:55;15.00;99.90
44229;DHT22;29904;51.058;5.378;2023-05-07T01:41:23;14.90;99.90
44229;DHT22;29904;51.058;5.378;2023-05-07T01:43:50;14.90;99.90
44229;DHT22;29904;51.058;5.378;2023-05-07T01:46:19;14.90;99.90
44229;DHT22;29904;51.058;5.378;2023-05-07T01:48:46;14.90;99.90
44229;DHT22;29904;51.058;5.378;2023-05-07T01:51:12;14.90;99.90
44229;DHT22;29904;51.058;5.378;2023-05-07T01:53:40;14.80;99.90
44229;DHT22;29904;51.058;5.378;2023-05-07T01:56:07;14.80;99.90
44229;DHT22;29904;51.058;5.378;2023-05-07T01:58:33;14.80;99.90
44229;DHT22;29904;51.058;5.378;2023-05-07T02:00:58;14.80;99.90
44229;DHT22;29904;51.058;5.378;2023-05-07T02:03:24;14.80;99.90
44229;DHT22;29904;51.058;5.378;2023-05-07T02:05:51;14.80;99.90
44229;DHT22;29904;51.058;5.378;2023-05-07T02:08:16;14.80;99.90
44229;DHT22;29904;51.058;5.378;2023-05-07T02:10:42;14.80;99.90
44229;DHT22;29904;51.058;5.378;2023-05-07T02:13:08;14.80;99.90
44229;DHT22;29904;51.058;5.378;2023-05-07T02:15:34;14.80;99.90
44229;DHT22;29904;51.058;5.378;2023-05-07T02:18:04;14.80;99.90
44229;DHT22;29904;51.058;5.378;2023-05-07T02:20:31;14.90;99.90
44229;DHT22;29904;51.058;5.378;2023-05-07T02:22:57;14.80;99.90
44229;DHT22;29904;51.058;5.378;2023-05-07T02:25:25;14.80;99.90
44229;DHT22;29904;51.058;5.378;2023-05-07T02:27:50;14.80;99.90
44229;DHT22;29904;51.058;5.378;2023-05-07T02:30:16;14.80;99.90
44229;DHT22;29904;51.058;5.378;2023-05-07T02:32:44;14.90;99.90
44229;DHT22;29904;51.058;5.378;2023-05-07T02:35:10;14.80;99.90
44229;DHT22;29904;51.058;5.378;2023-05-07T02:37:36;14.80;99.90
44229;DHT22;29904;51.058;5.378;2023-05-07T02:40:01;14.80;99.90
44229;DHT22;29904;51.058;5.378;2023-05-07T02:42:29;14.80;99.90
44229;DHT22;29904;51.058;5.378;2023-05-07T02:44:54;14.80;99.90
44229;DHT22;29904;51.058;5.378;2023-05-07T02:47:22;14.80;99.90
44229;DHT22;29904;51.058;5.378;2023-05-07T02:49:48;14.80;99.90
44229;DHT22;29904;51.058;5.378;2023-05-07T02:52:13;14.80;99.90
44229;DHT22;29904;51.058;5.378;2023-05-07T02:54:41;14.80;99.90
44229;DHT22;29904;51.058;5.378;2023-05-07T02:57:07;14.80;99.90
44229;DHT22;29904;51.058;5.378;2023-05-07T02:59:33;14.80;99.90
44229;DHT22;29904;51.058;5.378;2023-05-07T03:01:58;14.80;99.90
44229;DHT22;29904;51.058;5.378;2023-05-07T03:04:24;14.80;99.90
44229;DHT22;29904;51.058;5.378;2023-05-07T03:06:50;14.80;99.90
44229;DHT22;29904;51.058;5.378;2023-05-07T03:09:16;14.80;99.90
44229;DHT22;29904;51.058;5.378;2023-05-07T03:11:42;14.80;99.90
44229;DHT22;29904;51.058;5.378;2023-05-07T03:14:07;14.80;99.90
44229;DHT22;29904;51.058;5.378;2023-05-07T03:16:35;15.80;99.90
44229;DHT22;29904;51.058;5.378;2023-05-07T03:19:01;14.80;99.90
44229;DHT22;29904;51.058;5.378;2023-05-07T03:21:26;14.80;99.90
44229;DHT22;29904;51.058;5.378;2023-05-07T03:23:52;14.80;99.90
44229;DHT22;29904;51.058;5.378;2023-05-07T03:26:18;14.80;99.90
44229;DHT22;29904;51.058;5.378;2023-05-07T03:28:44;14.80;99.90
44229;DHT22;29904;51.058;5.378;2023-05-07T03:31:10;14.80;99.90
44229;DHT22;29904;51.058;5.378;2023-05-07T03:33:49;14.70;99.90
44229;DHT22;29904;51.058;5.378;2023-05-07T03:36:16;14.70;99.90
44229;DHT22;29904;51.058;5.378;2023-05-07T03:38:41;14.70;99.90
44229;DHT22;29904;51.058;5.378;2023-05-07T03:41:07;14.70;99.90
44229;DHT22;29904;51.058;5.378;2023-05-07T03:43:35;14.60;99.90
44229;DHT22;29904;51.058;5.378;2023-05-07T03:46:00;14.60;99.90
44229;DHT22;29904;51.058;5.378;2023-05-07T03:48:26;14.60;99.90
44229;DHT22;29904;51.058;5.378;2023-05-07T03:50:52;14.70;99.90
44229;DHT22;29904;51.058;5.378;2023-05-07T03:53:18;14.70;99.90
44229;DHT22;29904;51.058;5.378;2023-05-07T03:55:44;14.70;99.90
44229;DHT22;29904;51.058;5.378;2023-05-07T03:58:11;14.80;99.90
44229;DHT22;29904;51.058;5.378;2023-05-07T04:00:37;14.90;99.90
44229;DHT22;29904;51.058;5.378;2023-05-07T04:03:04;14.90;99.90
44229;DHT22;29904;51.058;5.378;2023-05-07T04:05:30;14.90;99.90
44229;DHT22;29904;51.058;5.378;2023-05-07T04:07:58;14.90;99.90
44229;DHT22;29904;51.058;5.378;2023-05-07T04:10:24;14.90;99.90
44229;DHT22;29904;51.058;5.378;2023-05-07T04:12:51;14.90;99.90
44229;DHT22;29904;51.058;5.378;2023-05-07T04:15:17;14.90;99.90
44229;DHT22;29904;51.058;5.378;2023-05-07T04:17:43;14.90;99.90
44229;DHT22;29904;51.058;5.378;2023-05-07T04:20:10;14.90;99.90
44229;DHT22;29904;51.058;5.378;2023-05-07T04:22:36;15.00;99.90
44229;DHT22;29904;51.058;5.378;2023-05-07T04:25:02;15.00;99.90
44229;DHT22;29904;51.058;5.378;2023-05-07T04:27:28;15.10;99.90
44229;DHT22;29904;51.058;5.378;2023-05-07T04:29:54;15.10;99.90
44229;DHT22;29904;51.058;5.378;2023-05-07T04:32:23;15.10;99.90
44229;DHT22;29904;51.058;5.378;2023-05-07T04:34:50;15.20;99.90
44229;DHT22;29904;51.058;5.378;2023-05-07T04:37:16;15.20;99.90
44229;DHT22;29904;51.058;5.378;2023-05-07T04:39:42;15.30;99.90
44229;DHT22;29904;51.058;5.378;2023-05-07T04:42:08;15.30;99.90
44229;DHT22;29904;51.058;5.378;2023-05-07T04:44:34;15.30;99.90
44229;DHT22;29904;51.058;5.378;2023-05-07T04:47:02;15.30;99.90
44229;DHT22;29904;51.058;5.378;2023-05-07T04:49:28;15.20;99.90
44229;DHT22;29904;51.058;5.378;2023-05-07T04:51:53;15.20;99.90
44229;DHT22;29904;51.058;5.378;2023-05-07T04:54:21;15.20;99.90
44229;DHT22;29904;51.058;5.378;2023-05-07T04:56:47;15.20;99.90
44229;DHT22;29904;51.058;5.378;2023-05-07T04:59:12;15.30;99.90
44229;DHT22;29904;51.058;5.378;2023-05-07T05:01:38;15.30;99.90
44229;DHT22;29904;51.058;5.378;2023-05-07T05:04:04;15.30;99.90
44229;DHT22;29904;51.058;5.378;2023-05-07T05:06:30;15.30;99.90
44229;DHT22;29904;51.058;5.378;2023-05-07T05:08:56;15.40;99.90
44229;DHT22;29904;51.058;5.378;2023-05-07T05:11:21;15.40;99.90
44229;DHT22;29904;51.058;5.378;2023-05-07T05:13:47;15.40;99.90
44229;DHT22;29904;51.058;5.378;2023-05-07T05:16:15;15.40;99.90
44229;DHT22;29904;51.058;5.378;2023-05-07T05:18:43;15.50;99.90
44229;DHT22;29904;51.058;5.378;2023-05-07T05:21:09;15.50;99.90
44229;DHT22;29904;51.058;5.378;2023-05-07T05:23:34;15.60;99.90
44229;DHT22;29904;51.058;5.378;2023-05-07T05:26:00;15.70;99.90
44229;DHT22;29904;51.058;5.378;2023-05-07T05:28:26;15.70;99.90
44229;DHT22;29904;51.058;5.378;2023-05-07T05:30:52;15.80;99.90
44229;DHT22;29904;51.058;5.378;2023-05-07T05:33:18;15.90;99.90
44229;DHT22;29904;51.058;5.378;2023-05-07T05:35:44;16.00;99.90
44229;DHT22;29904;51.058;5.378;2023-05-07T05:38:10;16.00;99.90
44229;DHT22;29904;51.058;5.378;2023-05-07T05:40:36;16.10;99.90
44229;DHT22;29904;51.058;5.378;2023-05-07T05:43:01;16.20;99.90
44229;DHT22;29904;51.058;5.378;2023-05-07T05:45:29;16.20;99.90
44229;DHT22;29904;51.058;5.378;2023-05-07T05:47:56;16.30;99.90
44229;DHT22;29904;51.058;5.378;2023-05-07T05:50:22;16.40;99.90
44229;DHT22;29904;51.058;5.378;2023-05-07T05:52:47;16.40;99.90
44229;DHT22;29904;51.058;5.378;2023-05-07T05:55:14;16.50;99.90
44229;DHT22;29904;51.058;5.378;2023-05-07T05:57:40;16.50;99.90
44229;DHT22;29904;51.058;5.378;2023-05-07T06:00:07;16.60;99.90
44229;DHT22;29904;51.058;5.378;2023-05-07T06:02:33;16.70;99.90
44229;DHT22;29904;51.058;5.378;2023-05-07T06:04:59;16.80;99.90
44229;DHT22;29904;51.058;5.378;2023-05-07T06:07:25;16.90;99.90
44229;DHT22;29904;51.058;5.378;2023-05-07T06:09:51;17.00;99.90
44229;DHT22;29904;51.058;5.378;2023-05-07T06:12:16;17.10;99.90
44229;DHT22;29904;51.058;5.378;2023-05-07T06:14:45;17.10;99.90
44229;DHT22;29904;51.058;5.378;2023-05-07T06:17:11;17.10;99.90
44229;DHT22;29904;51.058;5.378;2023-05-07T06:19:36;17.20;99.90
44229;DHT22;29904;51.058;5.378;2023-05-07T06:22:02;17.30;99.90
44229;DHT22;29904;51.058;5.378;2023-05-07T06:24:28;17.30;99.90
44229;DHT22;29904;51.058;5.378;2023-05-07T06:26:54;17.30;99.90
44229;DHT22;29904;51.058;5.378;2023-05-07T06:29:22;17.30;99.90
44229;DHT22;29904;51.058;5.378;2023-05-07T06:31:48;17.40;99.90
44229;DHT22;29904;51.058;5.378;2023-05-07T06:34:13;17.50;99.90
44229;DHT22;29904;51.058;5.378;2023-05-07T06:36:40;17.50;99.90
44229;DHT22;29904;51.058;5.378;2023-05-07T06:39:06;17.60;99.90
44229;DHT22;29904;51.058;5.378;2023-05-07T06:41:32;17.70;99.90
44229;DHT22;29904;51.058;5.378;2023-05-07T06:43:57;17.80;99.90
44229;DHT22;29904;51.058;5.378;2023-05-07T06:46:23;17.90;99.90
44229;DHT22;29904;51.058;5.378;2023-05-07T06:48:49;18.00;99.90
44229;DHT22;29904;51.058;5.378;2023-05-07T06:51:15;18.10;99.90
44229;DHT22;29904;51.058;5.378;2023-05-07T06:53:40;18.20;99.90
44229;DHT22;29904;51.058;5.378;2023-05-07T06:56:06;18.30;99.90
44229;DHT22;29904;51.058;5.378;2023-05-07T06:58:32;18.50;99.90
44229;DHT22;29904;51.058;5.378;2023-05-07T07:01:00;18.60;99.90
44229;DHT22;29904;51.058;5.378;2023-05-07T07:03:26;18.90;99.90
44229;DHT22;29904;51.058;5.378;2023-05-07T07:05:53;19.10;99.90
44229;DHT22;29904;51.058;5.378;2023-05-07T07:08:19;19.20;99.90
44229;DHT22;29904;51.058;5.378;2023-05-07T07:10:47;19.40;99.90
44229;DHT22;29904;51.058;5.378;2023-05-07T07:13:13;19.60;99.90
44229;DHT22;29904;51.058;5.378;2023-05-07T07:15:39;19.80;99.90
44229;DHT22;29904;51.058;5.378;2023-05-07T07:18:06;20.00;99.90
44229;DHT22;29904;51.058;5.378;2023-05-07T07:20:31;20.10;99.90
44229;DHT22;29904;51.058;5.378;2023-05-07T07:22:59;20.40;99.90
44229;DHT22;29904;51.058;5.378;2023-05-07T07:25:25;20.50;99.90
44229;DHT22;29904;51.058;5.378;2023-05-07T07:27:51;20.60;99.90
44229;DHT22;29904;51.058;5.378;2023-05-07T07:30:17;20.80;99.90
44229;DHT22;29904;51.058;5.378;2023-05-07T07:32:43;20.90;99.90
44229;DHT22;29904;51.058;5.378;2023-05-07T07:35:09;21.10;99.90
44229;DHT22;29904;51.058;5.378;2023-05-07T07:37:35;21.20;99.90
44229;DHT22;29904;51.058;5.378;2023-05-07T07:40:01;21.30;99.90
44229;DHT22;29904;51.058;5.378;2023-05-07T07:42:26;21.20;99.90
44229;DHT22;29904;51.058;5.378;2023-05-07T07:44:52;21.20;99.90
44229;DHT22;29904;51.058;5.378;2023-05-07T07:47:18;21.30;99.90
44229;DHT22;29904;51.058;5.378;2023-05-07T07:49:44;21.30;99.90
44229;DHT22;29904;51.058;5.378;2023-05-07T07:52:10;21.40;99.90
44229;DHT22;29904;51.058;5.378;2023-05-07T07:54:35;21.40;99.90
44229;DHT22;29904;51.058;5.378;2023-05-07T07:57:01;21.40;99.90
44229;DHT22;29904;51.058;5.378;2023-05-07T07:59:29;21.50;99.90
44229;DHT22;29904;51.058;5.378;2023-05-07T08:01:54;21.60;99.90
44229;DHT22;29904;51.058;5.378;2023-05-07T08:04:22;21.60;99.90
44229;DHT22;29904;51.058;5.378;2023-05-07T08:06:48;21.80;99.90
44229;DHT22;29904;51.058;5.378;2023-05-07T08:09:14;21.90;99.90
44229;DHT22;29904;51.058;5.378;2023-05-07T08:11:39;22.20;99.90
44229;DHT22;29904;51.058;5.378;2023-05-07T08:14:05;22.30;99.90
44229;DHT22;29904;51.058;5.378;2023-05-07T08:16:31;22.40;99.90
44229;DHT22;29904;51.058;5.378;2023-05-07T08:18:57;22.40;99.90
44229;DHT22;29904;51.058;5.378;2023-05-07T08:21:22;22.60;99.90
44229;DHT22;29904;51.058;5.378;2023-05-07T08:23:48;22.70;99.90
44229;DHT22;29904;51.058;5.378;2023-05-07T08:26:14;23.00;99.90
44229;DHT22;29904;51.058;5.378;2023-05-07T08:28:40;23.30;99.90
44229;DHT22;29904;51.058;5.378;2023-05-07T08:31:06;23.30;99.90
44229;DHT22;29904;51.058;5.378;2023-05-07T08:33:32;23.40;99.90
44229;DHT22;29904;51.058;5.378;2023-05-07T08:35:57;23.60;99.90
44229;DHT22;29904;51.058;5.378;2023-05-07T08:38:23;23.60;99.90
44229;DHT22;29904;51.058;5.378;2023-05-07T08:40:51;23.60;99.90
44229;DHT22;29904;51.058;5.378;2023-05-07T08:43:20;23.60;99.90
44229;DHT22;29904;51.058;5.378;2023-05-07T08:45:49;23.50;99.90
44229;DHT22;29904;51.058;5.378;2023-05-07T08:48:22;23.50;99.90
44229;DHT22;29904;51.058;5.378;2023-05-07T08:50:50;23.80;99.90
44229;DHT22;29904;51.058;5.378;2023-05-07T08:53:17;23.80;99.90
44229;DHT22;29904;51.058;5.378;2023-05-07T08:55:45;23.90;99.90
44229;DHT22;29904;51.058;5.378;2023-05-07T08:58:11;23.90;99.90
44229;DHT22;29904;51.058;5.378;2023-05-07T09:00:38;24.10;99.90
44229;DHT22;29904;51.058;5.378;2023-05-07T09:03:06;23.90;99.90
44229;DHT22;29904;51.058;5.378;2023-05-07T09:05:32;23.90;99.90
44229;DHT22;29904;51.058;5.378;2023-05-07T09:08:02;23.90;99.90
44229;DHT22;29904;51.058;5.378;2023-05-07T09:10:32;23.80;99.90
44229;DHT22;29904;51.058;5.378;2023-05-07T09:12:58;23.70;99.90
44229;DHT22;29904;51.058;5.378;2023-05-07T09:15:23;23.50;99.90
44229;DHT22;29904;51.058;5.378;2023-05-07T09:17:52;23.40;99.90
44229;DHT22;29904;51.058;5.378;2023-05-07T09:20:18;23.30;99.90
44229;DHT22;29904;51.058;5.378;2023-05-07T09:22:43;23.20;99.90
44229;DHT22;29904;51.058;5.378;2023-05-07T09:25:12;23.20;99.90
44229;DHT22;29904;51.058;5.378;2023-05-07T09:27:38;23.20;99.90
44229;DHT22;29904;51.058;5.378;2023-05-07T09:30:05;23.10;99.90
44229;DHT22;29904;51.058;5.378;2023-05-07T09:32:35;23.10;99.90
44229;DHT22;29904;51.058;5.378;2023-05-07T09:35:01;22.80;99.90
44229;DHT22;29904;51.058;5.378;2023-05-07T09:37:31;22.60;99.90
44229;DHT22;29904;51.058;5.378;2023-05-07T09:39:56;22.40;99.90
44229;DHT22;29904;51.058;5.378;2023-05-07T09:42:26;22.60;99.90
44229;DHT22;29904;51.058;5.378;2023-05-07T09:44:52;22.90;99.90
44229;DHT22;29904;51.058;5.378;2023-05-07T09:47:19;23.30;99.90
44229;DHT22;29904;51.058;5.378;2023-05-07T09:49:47;23.80;99.90
44229;DHT22;29904;51.058;5.378;2023-05-07T09:52:15;24.30;99.90
44229;DHT22;29904;51.058;5.378;2023-05-07T09:54:41;24.60;99.90
44229;DHT22;29904;51.058;5.378;2023-05-07T09:57:10;24.70;99.90
44229;DHT22;29904;51.058;5.378;2023-05-07T09:59:37;24.80;99.90
44229;DHT22;29904;51.058;5.378;2023-05-07T10:02:04;24.80;99.90
44229;DHT22;29904;51.058;5.378;2023-05-07T10:04:31;24.80;99.90
44229;DHT22;29904;51.058;5.378;2023-05-07T10:06:57;24.80;99.90
44229;DHT22;29904;51.058;5.378;2023-05-07T10:09:25;24.90;99.90
44229;DHT22;29904;51.058;5.378;2023-05-07T10:11:51;25.00;99.90
44229;DHT22;29904;51.058;5.378;2023-05-07T10:14:17;24.90;99.90
44229;DHT22;29904;51.058;5.378;2023-05-07T10:16:45;25.00;99.90
44229;DHT22;29904;51.058;5.378;2023-05-07T10:19:12;25.10;99.90
44229;DHT22;29904;51.058;5.378;2023-05-07T10:21:44;25.30;99.90
44229;DHT22;29904;51.058;5.378;2023-05-07T10:24:14;25.30;99.90
44229;DHT22;29904;51.058;5.378;2023-05-07T10:26:44;25.40;99.90
44229;DHT22;29904;51.058;5.378;2023-05-07T10:34:59;25.00;99.90
44229;DHT22;29904;51.058;5.378;2023-05-07T10:37:26;24.90;99.90
44229;DHT22;29904;51.058;5.378;2023-05-07T10:39:52;24.80;99.90
44229;DHT22;29904;51.058;5.378;2023-05-07T10:42:18;24.70;99.90
44229;DHT22;29904;51.058;5.378;2023-05-07T10:44:44;24.50;99.90
44229;DHT22;29904;51.058;5.378;2023-05-07T10:47:14;24.50;99.90
44229;DHT22;29904;51.058;5.378;2023-05-07T10:54:42;24.70;99.90
44229;DHT22;29904;51.058;5.378;2023-05-07T10:57:35;24.70;99.90
44229;DHT22;29904;51.058;5.378;2023-05-07T11:00:03;24.60;99.90
44229;DHT22;29904;51.058;5.378;2023-05-07T11:05:31;24.20;99.90
44229;DHT22;29904;51.058;5.378;2023-05-07T11:07:59;24.20;99.90
44229;DHT22;29904;51.058;5.378;2023-05-07T11:13:16;23.90;99.90
44229;DHT22;29904;51.058;5.378;2023-05-07T11:15:47;24.00;99.90
44229;DHT22;29904;51.058;5.378;2023-05-07T11:18:17;23.90;99.90
44229;DHT22;29904;51.058;5.378;2023-05-07T11:28:28;23.20;99.90
44229;DHT22;29904;51.058;5.378;2023-05-07T11:30:54;23.20;99.90
44229;DHT22;29904;51.058;5.378;2023-05-07T11:33:20;23.00;99.90
44229;DHT22;29904;51.058;5.378;2023-05-07T11:35:46;22.80;99.90
44229;DHT22;29904;51.058;5.378;2023-05-07T11:38:13;22.70;99.90
44229;DHT22;29904;51.058;5.378;2023-05-07T11:40:59;22.60;99.90
44229;DHT22;29904;51.058;5.378;2023-05-07T11:43:31;22.50;99.90
44229;DHT22;29904;51.058;5.378;2023-05-07T11:46:11;22.40;99.90
44229;DHT22;29904;51.058;5.378;2023-05-07T11:48:39;22.20;99.90
44229;DHT22;29904;51.058;5.378;2023-05-07T11:51:06;22.00;99.90
44229;DHT22;29904;51.058;5.378;2023-05-07T11:53:38;21.90;99.90
44229;DHT22;29904;51.058;5.378;2023-05-07T11:56:11;21.70;99.90
44229;DHT22;29904;51.058;5.378;2023-05-07T11:58:37;21.50;99.90
44229;DHT22;29904;51.058;5.378;2023-05-07T12:01:03;21.50;99.90
44229;DHT22;29904;51.058;5.378;2023-05-07T12:03:29;21.30;99.90
44229;DHT22;29904;51.058;5.378;2023-05-07T12:05:55;21.20;99.90
44229;DHT22;29904;51.058;5.378;2023-05-07T12:08:21;21.10;99.90
44229;DHT22;29904;51.058;5.378;2023-05-07T12:10:48;21.00;99.90
44229;DHT22;29904;51.058;5.378;2023-05-07T12:13:22;20.90;99.90
44229;DHT22;29904;51.058;5.378;2023-05-07T12:15:51;20.80;99.90
44229;DHT22;29904;51.058;5.378;2023-05-07T12:18:18;20.70;99.90
44229;DHT22;29904;51.058;5.378;2023-05-07T12:20:44;20.80;99.90
44229;DHT22;29904;51.058;5.378;2023-05-07T12:23:11;20.80;99.90
44229;DHT22;29904;51.058;5.378;2023-05-07T12:25:38;20.70;99.90
44229;DHT22;29904;51.058;5.378;2023-05-07T12:28:05;20.70;99.90
44229;DHT22;29904;51.058;5.378;2023-05-07T12:30:36;20.70;99.90
44229;DHT22;29904;51.058;5.378;2023-05-07T12:33:02;20.70;99.90
44229;DHT22;29904;51.058;5.378;2023-05-07T12:35:32;20.70;99.90
44229;DHT22;29904;51.058;5.378;2023-05-07T12:38:01;20.70;99.90
44229;DHT22;29904;51.058;5.378;2023-05-07T12:40:41;20.80;99.90
44229;DHT22;29904;51.058;5.378;2023-05-07T12:43:14;20.80;99.90
44229;DHT22;29904;51.058;5.378;2023-05-07T12:45:42;20.90;99.90
44229;DHT22;29904;51.058;5.378;2023-05-07T12:48:10;20.80;99.90
44229;DHT22;29904;51.058;5.378;2023-05-07T12:50:36;20.80;99.90
44229;DHT22;29904;51.058;5.378;2023-05-07T12:53:04;20.70;99.90
44229;DHT22;29904;51.058;5.378;2023-05-07T12:55:44;20.70;99.90
44229;DHT22;29904;51.058;5.378;2023-05-07T12:58:19;20.70;99.90
44229;DHT22;29904;51.058;5.378;2023-05-07T13:00:48;20.80;99.90
44229;DHT22;29904;51.058;5.378;2023-05-07T13:03:31;21.00;99.90
44229;DHT22;29904;51.058;5.378;2023-05-07T13:06:01;21.10;99.90
44229;DHT22;29904;51.058;5.378;2023-05-07T13:08:41;21.10;99.90
44229;DHT22;29904;51.058;5.378;2023-05-07T13:11:10;21.30;99.90
44229;DHT22;29904;51.058;5.378;2023-05-07T13:13:40;21.40;99.90
44229;DHT22;29904;51.058;5.378;2023-05-07T13:16:08;21.50;99.90
44229;DHT22;29904;51.058;5.378;2023-05-07T13:18:34;21.60;99.90
44229;DHT22;29904;51.058;5.378;2023-05-07T13:21:01;21.70;99.90
44229;DHT22;29904;51.058;5.378;2023-05-07T13:23:28;21.60;99.90
44229;DHT22;29904;51.058;5.378;2023-05-07T13:25:54;21.70;99.90
44229;DHT22;29904;51.058;5.378;2023-05-07T13:28:21;21.60;99.90
44229;DHT22;29904;51.058;5.378;2023-05-07T13:30:48;21.70;99.90
44229;DHT22;29904;51.058;5.378;2023-05-07T13:33:14;21.80;99.90
44229;DHT22;29904;51.058;5.378;2023-05-07T13:35:41;21.70;99.90
44229;DHT22;29904;51.058;5.378;2023-05-07T13:38:07;21.70;99.90
44229;DHT22;29904;51.058;5.378;2023-05-07T13:40:33;21.80;99.90
44229;DHT22;29904;51.058;5.378;2023-05-07T13:43:01;21.80;99.90
44229;DHT22;29904;51.058;5.378;2023-05-07T13:45:30;21.90;99.90
44229;DHT22;29904;51.058;5.378;2023-05-07T13:47:56;21.70;99.90
44229;DHT22;29904;51.058;5.378;2023-05-07T13:50:24;21.60;99.90
44229;DHT22;29904;51.058;5.378;2023-05-07T13:52:52;21.50;99.90
44229;DHT22;29904;51.058;5.378;2023-05-07T13:55:19;21.60;99.90
44229;DHT22;29904;51.058;5.378;2023-05-07T13:57:46;21.60;99.90
44229;DHT22;29904;51.058;5.378;2023-05-07T14:00:13;21.50;99.90
44229;DHT22;29904;51.058;5.378;2023-05-07T14:02:40;21.70;99.90
44229;DHT22;29904;51.058;5.378;2023-05-07T14:05:07;21.80;99.90
44229;DHT22;29904;51.058;5.378;2023-05-07T14:07:35;21.90;99.90
44229;DHT22;29904;51.058;5.378;2023-05-07T14:10:01;22.00;99.90
44229;DHT22;29904;51.058;5.378;2023-05-07T14:12:27;22.10;99.90
44229;DHT22;29904;51.058;5.378;2023-05-07T14:14:53;22.00;99.90
44229;DHT22;29904;51.058;5.378;2023-05-07T14:17:18;21.90;99.90
44229;DHT22;29904;51.058;5.378;2023-05-07T14:19:45;21.80;99.90
44229;DHT22;29904;51.058;5.378;2023-05-07T14:22:13;21.70;99.90
44229;DHT22;29904;51.058;5.378;2023-05-07T14:24:40;21.50;99.90
44229;DHT22;29904;51.058;5.378;2023-05-07T14:27:07;21.30;99.90
44229;DHT22;29904;51.058;5.378;2023-05-07T14:29:33;21.10;99.90
44229;DHT22;29904;51.058;5.378;2023-05-07T14:32:01;21.10;99.90
44229;DHT22;29904;51.058;5.378;2023-05-07T14:34:26;21.30;99.90
44229;DHT22;29904;51.058;5.378;2023-05-07T14:36:54;21.40;99.90
44229;DHT22;29904;51.058;5.378;2023-05-07T14:39:21;21.50;99.90
44229;DHT22;29904;51.058;5.378;2023-05-07T14:41:47;21.50;99.90
44229;DHT22;29904;51.058;5.378;2023-05-07T14:44:13;21.20;99.90
44229;DHT22;29904;51.058;5.378;2023-05-07T14:46:38;21.20;99.90
44229;DHT22;29904;51.058;5.378;2023-05-07T14:49:04;21.30;99.90
44229;DHT22;29904;51.058;5.378;2023-05-07T14:51:33;21.50;99.90
44229;DHT22;29904;51.058;5.378;2023-05-07T14:53:58;21.50;99.90
44229;DHT22;29904;51.058;5.378;2023-05-07T14:56:25;21.50;99.90
44229;DHT22;29904;51.058;5.378;2023-05-07T14:58:53;21.30;99.90
44229;DHT22;29904;51.058;5.378;2023-05-07T15:01:20;21.40;99.90
44229;DHT22;29904;51.058;5.378;2023-05-07T15:03:46;21.50;99.90
44229;DHT22;29904;51.058;5.378;2023-05-07T15:06:13;21.40;99.90
44229;DHT22;29904;51.058;5.378;2023-05-07T15:08:41;21.40;99.90
44229;DHT22;29904;51.058;5.378;2023-05-07T15:11:06;21.40;99.90
44229;DHT22;29904;51.058;5.378;2023-05-07T15:13:32;21.30;99.90
44229;DHT22;29904;51.058;5.378;2023-05-07T15:15:58;21.20;99.90
44229;DHT22;29904;51.058;5.378;2023-05-07T15:18:24;21.20;99.90
44229;DHT22;29904;51.058;5.378;2023-05-07T15:20:49;21.20;99.90
44229;DHT22;29904;51.058;5.378;2023-05-07T15:23:15;21.10;99.90
44229;DHT22;29904;51.058;5.378;2023-05-07T15:25:41;21.00;99.90
44229;DHT22;29904;51.058;5.378;2023-05-07T15:28:07;21.00;99.90
44229;DHT22;29904;51.058;5.378;2023-05-07T15:30:33;20.90;99.90
44229;DHT22;29904;51.058;5.378;2023-05-07T15:33:01;21.00;99.90
44229;DHT22;29904;51.058;5.378;2023-05-07T15:35:27;21.00;99.90
44229;DHT22;29904;51.058;5.378;2023-05-07T15:37:52;21.20;99.90
44229;DHT22;29904;51.058;5.378;2023-05-07T15:40:19;21.30;99.90
44229;DHT22;29904;51.058;5.378;2023-05-07T15:42:45;21.50;99.90
44229;DHT22;29904;51.058;5.378;2023-05-07T15:45:11;21.40;99.90
44229;DHT22;29904;51.058;5.378;2023-05-07T15:47:37;21.50;99.90
44229;DHT22;29904;51.058;5.378;2023-05-07T15:50:03;21.50;99.90
44229;DHT22;29904;51.058;5.378;2023-05-07T15:52:30;21.40;99.90